sensor_id;sensor_type;location;lat;lon;timestamp;temperature;humidity
69204;DHT22;56317;27.658;85.326;2023-07-31T00:00:15;20.40;99.90
69204;DHT22;56317;27.658;85.326;2023-07-31T00:02:42;20.40;99.90
69204;DHT22;56317;27.658;85.326;2023-07-31T00:05:09;20.60;99.90
69204;DHT22;56317;27.658;85.326;2023-07-31T00:07:36;20.70;99.90
69204;DHT22;56317;27.658;85.326;2023-07-31T00:10:04;20.80;99.90
69204;DHT22;56317;27.658;85.326;2023-07-31T00:12:31;20.90;99.90
69204;DHT22;56317;27.658;85.326;2023-07-31T00:14:59;21.00;99.90
69204;DHT22;56317;27.658;85.326;2023-07-31T00:17:26;21.10;99.90
69204;DHT22;56317;27.658;85.326;2023-07-31T00:19:53;21.10;99.90
69204;DHT22;56317;27.658;85.326;2023-07-31T00:22:20;21.10;99.90
69204;DHT22;56317;27.658;85.326;2023-07-31T00:24:47;21.20;99.90
69204;DHT22;56317;27.658;85.326;2023-07-31T00:27:14;21.30;99.90
69204;DHT22;56317;27.658;85.326;2023-07-31T00:29:41;21.50;99.90
69204;DHT22;56317;27.658;85.326;2023-07-31T00:32:08;21.60;99.90
69204;DHT22;56317;27.658;85.326;2023-07-31T00:34:35;21.60;99.90
69204;DHT22;56317;27.658;85.326;2023-07-31T00:37:02;21.60;99.90
69204;DHT22;56317;27.658;85.326;2023-07-31T00:39:30;21.70;99.90
69204;DHT22;56317;27.658;85.326;2023-07-31T00:41:58;21.80;99.90
69204;DHT22;56317;27.658;85.326;2023-07-31T00:44:25;21.90;99.90
69204;DHT22;56317;27.658;85.326;2023-07-31T00:46:52;21.90;99.90
69204;DHT22;56317;27.658;85.326;2023-07-31T00:49:20;22.10;99.90
69204;DHT22;56317;27.658;85.326;2023-07-31T00:51:47;22.10;99.90
69204;DHT22;56317;27.658;85.326;2023-07-31T00:54:14;22.20;99.90
69204;DHT22;56317;27.658;85.326;2023-07-31T00:56:42;22.10;99.90
69204;DHT22;56317;27.658;85.326;2023-07-31T00:59:10;22.20;99.90
69204;DHT22;56317;27.658;85.326;2023-07-31T01:01:38;22.20;99.90
69204;DHT22;56317;27.658;85.326;2023-07-31T01:04:05;22.20;99.90
69204;DHT22;56317;27.658;85.326;2023-07-31T01:12:32;22.30;99.90
69204;DHT22;56317;27.658;85.326;2023-07-31T01:15:08;22.30;99.90
69204;DHT22;56317;27.658;85.326;2023-07-31T01:17:39;22.30;99.90
69204;DHT22;56317;27.658;85.326;2023-07-31T01:20:22;22.30;99.90
69204;DHT22;56317;27.658;85.326;2023-07-31T01:23:35;22.50;99.90
69204;DHT22;56317;27.658;85.326;2023-07-31T01:26:24;22.60;99.90
69204;DHT22;56317;27.658;85.326;2023-07-31T01:29:17;22.80;99.90
69204;DHT22;56317;27.658;85.326;2023-07-31T01:31:48;23.00;99.90
69204;DHT22;56317;27.658;85.326;2023-07-31T01:34:17;23.20;99.90
69204;DHT22;56317;27.658;85.326;2023-07-31T01:36:44;23.30;99.90
69204;DHT22;56317;27.658;85.326;2023-07-31T01:39:11;23.40;99.90
69204;DHT22;56317;27.658;85.326;2023-07-31T01:41:38;23.50;99.90
69204;DHT22;56317;27.658;85.326;2023-07-31T01:44:06;23.70;99.90
69204;DHT22;56317;27.658;85.326;2023-07-31T01:46:33;23.70;99.90
69204;DHT22;56317;27.658;85.326;2023-07-31T01:49:01;23.70;99.90
69204;DHT22;56317;27.658;85.326;2023-07-31T01:51:28;23.60;99.90
69204;DHT22;56317;27.658;85.326;2023-07-31T01:53:55;23.60;99.90
69204;DHT22;56317;27.658;85.326;2023-07-31T01:56:22;23.70;99.90
69204;DHT22;56317;27.658;85.326;2023-07-31T01:58:49;23.90;99.90
69204;DHT22;56317;27.658;85.326;2023-07-31T02:01:16;24.00;99.90
69204;DHT22;56317;27.658;85.326;2023-07-31T02:03:43;23.90;99.90
69204;DHT22;56317;27.658;85.326;2023-07-31T02:06:10;24.10;99.90
69204;DHT22;56317;27.658;85.326;2023-07-31T02:08:38;24.20;99.90
69204;DHT22;56317;27.658;85.326;2023-07-31T02:11:05;24.40;99.90
69204;DHT22;56317;27.658;85.326;2023-07-31T02:13:32;24.50;99.90
69204;DHT22;56317;27.658;85.326;2023-07-31T02:15:59;24.60;99.90
69204;DHT22;56317;27.658;85.326;2023-07-31T02:18:27;24.70;99.90
69204;DHT22;56317;27.658;85.326;2023-07-31T02:20:54;24.80;99.90
69204;DHT22;56317;27.658;85.326;2023-07-31T02:23:23;25.00;99.90
69204;DHT22;56317;27.658;85.326;2023-07-31T02:25:50;25.10;99.90
69204;DHT22;56317;27.658;85.326;2023-07-31T02:28:17;25.20;99.90
69204;DHT22;56317;27.658;85.326;2023-07-31T02:30:45;25.40;99.90
69204;DHT22;56317;27.658;85.326;2023-07-31T02:33:12;25.70;99.90
69204;DHT22;56317;27.658;85.326;2023-07-31T02:35:39;25.80;99.90
69204;DHT22;56317;27.658;85.326;2023-07-31T02:38:07;25.90;99.90
69204;DHT22;56317;27.658;85.326;2023-07-31T02:40:34;25.90;99.90
69204;DHT22;56317;27.658;85.326;2023-07-31T02:43:01;25.80;99.90
69204;DHT22;56317;27.658;85.326;2023-07-31T02:45:28;25.80;99.90
69204;DHT22;56317;27.658;85.326;2023-07-31T02:47:55;25.80;99.90
69204;DHT22;56317;27.658;85.326;2023-07-31T02:50:22;25.80;99.90
69204;DHT22;56317;27.658;85.326;2023-07-31T02:52:50;25.70;99.90
69204;DHT22;56317;27.658;85.326;2023-07-31T02:55:17;25.70;99.90
69204;DHT22;56317;27.658;85.326;2023-07-31T02:57:44;25.70;99.90
69204;DHT22;56317;27.658;85.326;2023-07-31T03:00:11;26.00;99.90
69204;DHT22;56317;27.658;85.326;2023-07-31T03:02:39;26.30;99.90
69204;DHT22;56317;27.658;85.326;2023-07-31T03:05:06;26.70;99.90
69204;DHT22;56317;27.658;85.326;2023-07-31T03:07:33;27.10;99.90
69204;DHT22;56317;27.658;85.326;2023-07-31T03:10:01;27.50;99.90
69204;DHT22;56317;27.658;85.326;2023-07-31T03:12:29;27.80;99.90
69204;DHT22;56317;27.658;85.326;2023-07-31T03:14:56;28.10;99.90
69204;DHT22;56317;27.658;85.326;2023-07-31T03:17:23;28.50;99.90
69204;DHT22;56317;27.658;85.326;2023-07-31T03:19:50;28.90;99.90
69204;DHT22;56317;27.658;85.326;2023-07-31T03:22:17;29.10;99.90
69204;DHT22;56317;27.658;85.326;2023-07-31T03:24:45;29.20;99.90
69204;DHT22;56317;27.658;85.326;2023-07-31T03:27:12;29.40;99.90
69204;DHT22;56317;27.658;85.326;2023-07-31T03:29:39;29.40;99.90
69204;DHT22;56317;27.658;85.326;2023-07-31T03:32:06;29.40;99.90
69204;DHT22;56317;27.658;85.326;2023-07-31T03:34:34;29.50;99.90
69204;DHT22;56317;27.658;85.326;2023-07-31T03:37:01;29.40;99.90
69204;DHT22;56317;27.658;85.326;2023-07-31T03:39:28;29.50;99.90
69204;DHT22;56317;27.658;85.326;2023-07-31T03:41:55;29.50;99.90
69204;DHT22;56317;27.658;85.326;2023-07-31T03:44:22;29.60;99.90
69204;DHT22;56317;27.658;85.326;2023-07-31T03:46:49;29.40;99.90
69204;DHT22;56317;27.658;85.326;2023-07-31T03:49:17;29.10;99.90
69204;DHT22;56317;27.658;85.326;2023-07-31T03:51:44;28.90;99.90
69204;DHT22;56317;27.658;85.326;2023-07-31T03:54:11;28.80;99.90
69204;DHT22;56317;27.658;85.326;2023-07-31T03:56:39;28.80;99.90
69204;DHT22;56317;27.658;85.326;2023-07-31T03:59:07;29.00;99.90
69204;DHT22;56317;27.658;85.326;2023-07-31T04:01:34;29.40;99.90
69204;DHT22;56317;27.658;85.326;2023-07-31T04:04:02;29.80;99.90
69204;DHT22;56317;27.658;85.326;2023-07-31T04:06:29;29.90;99.90
69204;DHT22;56317;27.658;85.326;2023-07-31T04:08:56;30.00;99.90
69204;DHT22;56317;27.658;85.326;2023-07-31T04:11:24;29.90;99.90
69204;DHT22;56317;27.658;85.326;2023-07-31T04:13:51;29.80;99.90
69204;DHT22;56317;27.658;85.326;2023-07-31T04:16:18;29.40;99.90
69204;DHT22;56317;27.658;85.326;2023-07-31T04:18:45;29.20;99.90
69204;DHT22;56317;27.658;85.326;2023-07-31T04:21:12;29.00;99.90
69204;DHT22;56317;27.658;85.326;2023-07-31T04:23:39;29.00;99.90
69204;DHT22;56317;27.658;85.326;2023-07-31T04:26:06;29.30;99.90
69204;DHT22;56317;27.658;85.326;2023-07-31T04:28:34;29.50;99.90
69204;DHT22;56317;27.658;85.326;2023-07-31T04:31:01;29.90;99.90
69204;DHT22;56317;27.658;85.326;2023-07-31T04:33:28;30.40;99.90
69204;DHT22;56317;27.658;85.326;2023-07-31T04:35:56;30.70;99.90
69204;DHT22;56317;27.658;85.326;2023-07-31T04:38:23;31.00;99.90
69204;DHT22;56317;27.658;85.326;2023-07-31T04:40:50;31.20;99.90
69204;DHT22;56317;27.658;85.326;2023-07-31T04:43:17;31.20;99.90
69204;DHT22;56317;27.658;85.326;2023-07-31T04:45:48;31.30;99.90
69204;DHT22;56317;27.658;85.326;2023-07-31T04:48:16;31.50;99.90
69204;DHT22;56317;27.658;85.326;2023-07-31T04:50:44;31.60;99.90
69204;DHT22;56317;27.658;85.326;2023-07-31T04:53:11;31.80;99.90
69204;DHT22;56317;27.658;85.326;2023-07-31T04:55:38;31.90;99.90
69204;DHT22;56317;27.658;85.326;2023-07-31T04:58:05;32.00;99.90
69204;DHT22;56317;27.658;85.326;2023-07-31T05:00:33;31.80;99.90
69204;DHT22;56317;27.658;85.326;2023-07-31T05:03:00;31.60;99.90
69204;DHT22;56317;27.658;85.326;2023-07-31T05:05:27;31.50;99.90
69204;DHT22;56317;27.658;85.326;2023-07-31T05:07:54;31.50;99.90
69204;DHT22;56317;27.658;85.326;2023-07-31T05:10:21;31.70;99.90
69204;DHT22;56317;27.658;85.326;2023-07-31T05:12:49;32.10;99.90
69204;DHT22;56317;27.658;85.326;2023-07-31T05:15:16;32.40;99.90
69204;DHT22;56317;27.658;85.326;2023-07-31T05:17:43;32.60;99.90
69204;DHT22;56317;27.658;85.326;2023-07-31T05:20:10;32.50;99.90
69204;DHT22;56317;27.658;85.326;2023-07-31T05:22:38;32.70;99.90
69204;DHT22;56317;27.658;85.326;2023-07-31T05:25:05;32.60;99.90
69204;DHT22;56317;27.658;85.326;2023-07-31T05:27:33;32.00;99.90
69204;DHT22;56317;27.658;85.326;2023-07-31T05:30:00;31.60;99.90
69204;DHT22;56317;27.658;85.326;2023-07-31T05:32:27;31.70;99.90
69204;DHT22;56317;27.658;85.326;2023-07-31T05:34:54;32.00;99.90
69204;DHT22;56317;27.658;85.326;2023-07-31T05:37:23;32.00;99.90
69204;DHT22;56317;27.658;85.326;2023-07-31T05:39:51;32.00;99.90
69204;DHT22;56317;27.658;85.326;2023-07-31T05:42:18;32.20;99.90
69204;DHT22;56317;27.658;85.326;2023-07-31T05:44:45;32.20;99.90
69204;DHT22;56317;27.658;85.326;2023-07-31T05:47:13;31.80;99.90
69204;DHT22;56317;27.658;85.326;2023-07-31T05:49:40;31.60;99.90
69204;DHT22;56317;27.658;85.326;2023-07-31T05:52:08;31.60;99.90
69204;DHT22;56317;27.658;85.326;2023-07-31T05:54:35;31.70;99.90
69204;DHT22;56317;27.658;85.326;2023-07-31T05:57:02;31.80;99.90
69204;DHT22;56317;27.658;85.326;2023-07-31T05:59:29;32.00;99.90
69204;DHT22;56317;27.658;85.326;2023-07-31T06:01:59;32.00;99.90
69204;DHT22;56317;27.658;85.326;2023-07-31T06:04:26;32.00;99.90
69204;DHT22;56317;27.658;85.326;2023-07-31T06:06:54;32.00;99.90
69204;DHT22;56317;27.658;85.326;2023-07-31T06:09:23;32.00;99.90
69204;DHT22;56317;27.658;85.326;2023-07-31T06:11:52;32.20;99.90
69204;DHT22;56317;27.658;85.326;2023-07-31T06:14:21;32.40;99.90
69204;DHT22;56317;27.658;85.326;2023-07-31T06:16:48;32.30;99.90
69204;DHT22;56317;27.658;85.326;2023-07-31T06:19:15;32.00;99.90
69204;DHT22;56317;27.658;85.326;2023-07-31T06:21:43;32.40;99.90
69204;DHT22;56317;27.658;85.326;2023-07-31T06:24:10;33.10;99.90
69204;DHT22;56317;27.658;85.326;2023-07-31T06:26:39;33.70;99.90
69204;DHT22;56317;27.658;85.326;2023-07-31T06:29:07;33.90;99.90
69204;DHT22;56317;27.658;85.326;2023-07-31T06:31:34;33.60;99.90
69204;DHT22;56317;27.658;85.326;2023-07-31T06:34:01;32.90;99.90
69204;DHT22;56317;27.658;85.326;2023-07-31T06:36:28;32.70;99.90
69204;DHT22;56317;27.658;85.326;2023-07-31T06:38:56;32.50;99.90
69204;DHT22;56317;27.658;85.326;2023-07-31T06:41:23;32.70;99.90
69204;DHT22;56317;27.658;85.326;2023-07-31T06:43:56;32.80;99.90
69204;DHT22;56317;27.658;85.326;2023-07-31T06:46:23;33.10;99.90
69204;DHT22;56317;27.658;85.326;2023-07-31T06:48:50;33.20;99.90
69204;DHT22;56317;27.658;85.326;2023-07-31T06:51:18;33.30;99.90
69204;DHT22;56317;27.658;85.326;2023-07-31T06:53:45;33.50;99.90
69204;DHT22;56317;27.658;85.326;2023-07-31T06:56:12;33.80;99.90
69204;DHT22;56317;27.658;85.326;2023-07-31T06:58:39;34.00;99.90
69204;DHT22;56317;27.658;85.326;2023-07-31T07:01:07;35.60;99.90
69204;DHT22;56317;27.658;85.326;2023-07-31T07:03:34;36.80;98.80
69204;DHT22;56317;27.658;85.326;2023-07-31T07:06:01;37.20;96.90
69204;DHT22;56317;27.658;85.326;2023-07-31T07:08:28;38.60;95.50
69204;DHT22;56317;27.658;85.326;2023-07-31T07:10:56;40.90;94.00
69204;DHT22;56317;27.658;85.326;2023-07-31T07:13:23;43.10;91.40
69204;DHT22;56317;27.658;85.326;2023-07-31T07:15:50;45.00;84.80
69204;DHT22;56317;27.658;85.326;2023-07-31T07:18:18;46.40;79.60
69204;DHT22;56317;27.658;85.326;2023-07-31T07:20:50;47.90;74.20
69204;DHT22;56317;27.658;85.326;2023-07-31T07:23:18;48.40;69.90
69204;DHT22;56317;27.658;85.326;2023-07-31T07:25:46;47.40;69.30
69204;DHT22;56317;27.658;85.326;2023-07-31T07:28:14;47.90;69.40
69204;DHT22;56317;27.658;85.326;2023-07-31T07:30:41;47.40;65.20
69204;DHT22;56317;27.658;85.326;2023-07-31T07:33:08;44.60;67.60
69204;DHT22;56317;27.658;85.326;2023-07-31T07:35:36;42.90;69.90
69204;DHT22;56317;27.658;85.326;2023-07-31T07:38:03;44.90;70.00
69204;DHT22;56317;27.658;85.326;2023-07-31T07:40:31;46.20;65.60
69204;DHT22;56317;27.658;85.326;2023-07-31T07:42:58;46.10;66.90
69204;DHT22;56317;27.658;85.326;2023-07-31T07:45:26;46.50;65.60
69204;DHT22;56317;27.658;85.326;2023-07-31T07:47:53;47.00;65.20
69204;DHT22;56317;27.658;85.326;2023-07-31T07:50:21;44.90;64.60
69204;DHT22;56317;27.658;85.326;2023-07-31T07:52:49;44.30;66.60
69204;DHT22;56317;27.658;85.326;2023-07-31T07:55:16;45.80;65.80
69204;DHT22;56317;27.658;85.326;2023-07-31T07:57:44;45.70;63.90
69204;DHT22;56317;27.658;85.326;2023-07-31T08:00:13;43.30;65.90
69204;DHT22;56317;27.658;85.326;2023-07-31T08:02:40;41.20;68.10
69204;DHT22;56317;27.658;85.326;2023-07-31T08:05:08;39.80;71.10
69204;DHT22;56317;27.658;85.326;2023-07-31T08:07:35;39.80;71.90
69204;DHT22;56317;27.658;85.326;2023-07-31T08:10:02;40.60;72.60
69204;DHT22;56317;27.658;85.326;2023-07-31T08:12:30;42.90;71.40
69204;DHT22;56317;27.658;85.326;2023-07-31T08:14:57;44.80;69.00
69204;DHT22;56317;27.658;85.326;2023-07-31T08:17:26;47.20;65.10
69204;DHT22;56317;27.658;85.326;2023-07-31T08:19:53;49.00;62.90
69204;DHT22;56317;27.658;85.326;2023-07-31T08:22:21;49.80;60.70
69204;DHT22;56317;27.658;85.326;2023-07-31T08:24:49;48.20;60.70
69204;DHT22;56317;27.658;85.326;2023-07-31T08:27:16;46.10;63.30
69204;DHT22;56317;27.658;85.326;2023-07-31T08:29:43;44.00;65.50
69204;DHT22;56317;27.658;85.326;2023-07-31T08:32:10;42.60;67.20
69204;DHT22;56317;27.658;85.326;2023-07-31T08:34:37;41.30;69.80
69204;DHT22;56317;27.658;85.326;2023-07-31T08:37:05;40.20;71.50
69204;DHT22;56317;27.658;85.326;2023-07-31T08:39:32;39.00;71.30
69204;DHT22;56317;27.658;85.326;2023-07-31T08:41:59;38.30;73.10
69204;DHT22;56317;27.658;85.326;2023-07-31T08:44:27;37.40;74.60
69204;DHT22;56317;27.658;85.326;2023-07-31T08:46:57;35.80;77.10
69204;DHT22;56317;27.658;85.326;2023-07-31T08:49:25;34.40;79.90
69204;DHT22;56317;27.658;85.326;2023-07-31T08:51:53;33.40;83.30
69204;DHT22;56317;27.658;85.326;2023-07-31T08:54:22;32.70;84.40
69204;DHT22;56317;27.658;85.326;2023-07-31T08:56:50;32.50;86.80
69204;DHT22;56317;27.658;85.326;2023-07-31T08:59:18;32.40;87.90
69204;DHT22;56317;27.658;85.326;2023-07-31T09:01:50;32.80;89.10
69204;DHT22;56317;27.658;85.326;2023-07-31T09:04:19;33.20;87.70
69204;DHT22;56317;27.658;85.326;2023-07-31T09:06:48;33.60;87.10
69204;DHT22;56317;27.658;85.326;2023-07-31T09:09:15;34.70;85.00
69204;DHT22;56317;27.658;85.326;2023-07-31T09:11:42;36.50;81.20
69204;DHT22;56317;27.658;85.326;2023-07-31T09:14:10;36.40;80.80
69204;DHT22;56317;27.658;85.326;2023-07-31T09:16:55;36.80;79.80
69204;DHT22;56317;27.658;85.326;2023-07-31T09:19:36;36.80;79.10
69204;DHT22;56317;27.658;85.326;2023-07-31T09:22:06;36.30;81.10
69204;DHT22;56317;27.658;85.326;2023-07-31T09:24:35;36.20;81.20
69204;DHT22;56317;27.658;85.326;2023-07-31T09:27:02;36.70;82.50
69204;DHT22;56317;27.658;85.326;2023-07-31T09:29:30;38.30;79.00
69204;DHT22;56317;27.658;85.326;2023-07-31T09:31:58;38.00;77.00
69204;DHT22;56317;27.658;85.326;2023-07-31T09:34:38;38.70;78.20
69204;DHT22;56317;27.658;85.326;2023-07-31T09:37:06;38.10;77.40
69204;DHT22;56317;27.658;85.326;2023-07-31T09:39:33;39.70;77.70
69204;DHT22;56317;27.658;85.326;2023-07-31T09:42:12;42.10;72.50
69204;DHT22;56317;27.658;85.326;2023-07-31T09:44:40;41.00;72.30
69204;DHT22;56317;27.658;85.326;2023-07-31T09:47:21;39.60;74.40
69204;DHT22;56317;27.658;85.326;2023-07-31T09:49:52;37.20;77.00
69204;DHT22;56317;27.658;85.326;2023-07-31T09:52:20;38.00;79.20
69204;DHT22;56317;27.658;85.326;2023-07-31T09:54:47;37.90;77.80
69204;DHT22;56317;27.658;85.326;2023-07-31T09:57:17;36.60;78.80
69204;DHT22;56317;27.658;85.326;2023-07-31T09:59:47;35.20;81.40
69204;DHT22;56317;27.658;85.326;2023-07-31T10:02:21;34.00;84.20
69204;DHT22;56317;27.658;85.326;2023-07-31T10:04:52;32.90;87.30
69204;DHT22;56317;27.658;85.326;2023-07-31T10:07:26;32.00;89.60
69204;DHT22;56317;27.658;85.326;2023-07-31T10:09:57;31.80;91.00
69204;DHT22;56317;27.658;85.326;2023-07-31T10:12:26;34.10;89.60
69204;DHT22;56317;27.658;85.326;2023-07-31T10:14:57;35.90;85.30
69204;DHT22;56317;27.658;85.326;2023-07-31T10:17:25;36.30;84.30
69204;DHT22;56317;27.658;85.326;2023-07-31T10:19:53;36.60;83.60
69204;DHT22;56317;27.658;85.326;2023-07-31T10:22:21;37.40;81.50
69204;DHT22;56317;27.658;85.326;2023-07-31T10:24:49;37.50;81.10
69204;DHT22;56317;27.658;85.326;2023-07-31T10:27:17;37.80;78.90
69204;DHT22;56317;27.658;85.326;2023-07-31T10:29:45;36.70;79.90
69204;DHT22;56317;27.658;85.326;2023-07-31T10:32:16;35.00;82.80
69204;DHT22;56317;27.658;85.326;2023-07-31T10:34:44;33.90;85.00
69204;DHT22;56317;27.658;85.326;2023-07-31T10:37:29;32.90;87.00
69204;DHT22;56317;27.658;85.326;2023-07-31T10:40:04;32.20;90.20
69204;DHT22;56317;27.658;85.326;2023-07-31T10:42:34;31.90;91.10
69204;DHT22;56317;27.658;85.326;2023-07-31T10:45:09;31.80;91.50
69204;DHT22;56317;27.658;85.326;2023-07-31T10:48:00;31.60;91.20
69204;DHT22;56317;27.658;85.326;2023-07-31T10:50:31;31.50;91.40
69204;DHT22;56317;27.658;85.326;2023-07-31T10:53:01;31.30;92.10
69204;DHT22;56317;27.658;85.326;2023-07-31T10:55:40;30.90;92.00
69204;DHT22;56317;27.658;85.326;2023-07-31T10:58:12;30.60;92.50
69204;DHT22;56317;27.658;85.326;2023-07-31T11:00:41;30.20;92.70
69204;DHT22;56317;27.658;85.326;2023-07-31T11:03:16;29.70;93.50
69204;DHT22;56317;27.658;85.326;2023-07-31T11:05:59;29.40;94.30
69204;DHT22;56317;27.658;85.326;2023-07-31T11:08:40;29.10;94.80
69204;DHT22;56317;27.658;85.326;2023-07-31T11:11:11;28.90;95.50
69204;DHT22;56317;27.658;85.326;2023-07-31T11:13:47;28.70;95.70
69204;DHT22;56317;27.658;85.326;2023-07-31T11:16:23;28.60;96.60
69204;DHT22;56317;27.658;85.326;2023-07-31T11:18:51;28.50;97.00
69204;DHT22;56317;27.658;85.326;2023-07-31T11:21:22;28.30;97.30
69204;DHT22;56317;27.658;85.326;2023-07-31T11:23:58;28.20;97.90
69204;DHT22;56317;27.658;85.326;2023-07-31T11:26:26;28.20;98.40
69204;DHT22;56317;27.658;85.326;2023-07-31T11:28:54;28.00;98.70
69204;DHT22;56317;27.658;85.326;2023-07-31T11:31:22;27.90;99.00
69204;DHT22;56317;27.658;85.326;2023-07-31T11:33:49;27.80;99.50
69204;DHT22;56317;27.658;85.326;2023-07-31T11:36:17;27.60;99.90
69204;DHT22;56317;27.658;85.326;2023-07-31T11:38:45;27.60;99.90
69204;DHT22;56317;27.658;85.326;2023-07-31T11:41:15;27.50;99.90
69204;DHT22;56317;27.658;85.326;2023-07-31T11:43:43;27.50;99.90
69204;DHT22;56317;27.658;85.326;2023-07-31T11:46:10;27.50;99.90
69204;DHT22;56317;27.658;85.326;2023-07-31T11:48:39;27.60;99.90
69204;DHT22;56317;27.658;85.326;2023-07-31T11:51:09;27.60;99.90
69204;DHT22;56317;27.658;85.326;2023-07-31T11:53:53;27.60;99.90
69204;DHT22;56317;27.658;85.326;2023-07-31T11:56:24;27.60;99.90
69204;DHT22;56317;27.658;85.326;2023-07-31T11:58:59;27.50;99.90
69204;DHT22;56317;27.658;85.326;2023-07-31T12:01:28;27.30;99.90
69204;DHT22;56317;27.658;85.326;2023-07-31T12:03:56;27.30;99.90
69204;DHT22;56317;27.658;85.326;2023-07-31T12:06:36;27.20;99.90
69204;DHT22;56317;27.658;85.326;2023-07-31T12:09:06;27.20;99.90
69204;DHT22;56317;27.658;85.326;2023-07-31T12:11:49;27.20;99.90
69204;DHT22;56317;27.658;85.326;2023-07-31T12:14:27;27.00;99.90
69204;DHT22;56317;27.658;85.326;2023-07-31T12:16:59;26.90;99.90
69204;DHT22;56317;27.658;85.326;2023-07-31T12:19:27;26.70;99.90
69204;DHT22;56317;27.658;85.326;2023-07-31T12:22:12;26.70;99.90
69204;DHT22;56317;27.658;85.326;2023-07-31T12:24:43;26.60;99.90
69204;DHT22;56317;27.658;85.326;2023-07-31T12:27:12;26.60;99.90
69204;DHT22;56317;27.658;85.326;2023-07-31T12:29:41;26.60;99.90
69204;DHT22;56317;27.658;85.326;2023-07-31T12:32:22;26.70;99.90
69204;DHT22;56317;27.658;85.326;2023-07-31T12:35:10;26.60;99.90
69204;DHT22;56317;27.658;85.326;2023-07-31T12:37:38;26.70;99.90
69204;DHT22;56317;27.658;85.326;2023-07-31T12:40:06;26.70;99.90
69204;DHT22;56317;27.658;85.326;2023-07-31T12:42:33;26.60;99.90
69204;DHT22;56317;27.658;85.326;2023-07-31T12:45:01;26.60;99.90
69204;DHT22;56317;27.658;85.326;2023-07-31T12:47:35;26.50;99.90
69204;DHT22;56317;27.658;85.326;2023-07-31T12:50:03;26.40;99.90
69204;DHT22;56317;27.658;85.326;2023-07-31T12:52:30;26.40;99.90
69204;DHT22;56317;27.658;85.326;2023-07-31T12:54:57;26.30;99.90
69204;DHT22;56317;27.658;85.326;2023-07-31T12:57:24;26.20;99.90
69204;DHT22;56317;27.658;85.326;2023-07-31T12:59:53;26.20;99.90
69204;DHT22;56317;27.658;85.326;2023-07-31T13:02:20;26.10;99.90
69204;DHT22;56317;27.658;85.326;2023-07-31T13:04:48;26.10;99.90
69204;DHT22;56317;27.658;85.326;2023-07-31T13:07:15;26.00;99.90
69204;DHT22;56317;27.658;85.326;2023-07-31T13:09:43;25.90;99.90
69204;DHT22;56317;27.658;85.326;2023-07-31T13:12:10;25.80;99.90
69204;DHT22;56317;27.658;85.326;2023-07-31T13:14:37;25.70;99.90
69204;DHT22;56317;27.658;85.326;2023-07-31T13:17:04;25.60;99.90
69204;DHT22;56317;27.658;85.326;2023-07-31T13:19:32;25.50;99.90
69204;DHT22;56317;27.658;85.326;2023-07-31T13:21:59;25.30;99.90
69204;DHT22;56317;27.658;85.326;2023-07-31T13:24:27;25.20;99.90
69204;DHT22;56317;27.658;85.326;2023-07-31T13:26:56;25.10;99.90
69204;DHT22;56317;27.658;85.326;2023-07-31T13:29:23;25.00;99.90
69204;DHT22;56317;27.658;85.326;2023-07-31T13:31:51;25.00;99.90
69204;DHT22;56317;27.658;85.326;2023-07-31T13:34:19;24.90;99.90
69204;DHT22;56317;27.658;85.326;2023-07-31T13:36:46;24.80;99.90
69204;DHT22;56317;27.658;85.326;2023-07-31T13:39:13;24.70;99.90
69204;DHT22;56317;27.658;85.326;2023-07-31T13:41:40;24.70;99.90
69204;DHT22;56317;27.658;85.326;2023-07-31T13:44:07;24.70;99.90
69204;DHT22;56317;27.658;85.326;2023-07-31T13:46:34;24.60;99.90
69204;DHT22;56317;27.658;85.326;2023-07-31T13:49:01;24.60;99.90
69204;DHT22;56317;27.658;85.326;2023-07-31T13:51:29;24.60;99.90
69204;DHT22;56317;27.658;85.326;2023-07-31T13:53:56;24.60;99.90
69204;DHT22;56317;27.658;85.326;2023-07-31T13:56:27;24.60;99.90
69204;DHT22;56317;27.658;85.326;2023-07-31T13:58:54;24.60;99.90
69204;DHT22;56317;27.658;85.326;2023-07-31T14:01:21;24.60;99.90
69204;DHT22;56317;27.658;85.326;2023-07-31T14:03:48;24.60;99.90
69204;DHT22;56317;27.658;85.326;2023-07-31T14:06:15;24.50;99.90
69204;DHT22;56317;27.658;85.326;2023-07-31T14:08:42;24.50;99.90
69204;DHT22;56317;27.658;85.326;2023-07-31T14:11:09;24.50;99.90
69204;DHT22;56317;27.658;85.326;2023-07-31T14:13:37;24.50;99.90
69204;DHT22;56317;27.658;85.326;2023-07-31T14:16:04;24.50;99.90
69204;DHT22;56317;27.658;85.326;2023-07-31T14:18:31;24.50;99.90
69204;DHT22;56317;27.658;85.326;2023-07-31T14:20:58;24.50;99.90
69204;DHT22;56317;27.658;85.326;2023-07-31T14:23:27;24.50;99.90
69204;DHT22;56317;27.658;85.326;2023-07-31T14:25:54;24.50;99.90
69204;DHT22;56317;27.658;85.326;2023-07-31T14:28:21;24.50;99.90
69204;DHT22;56317;27.658;85.326;2023-07-31T14:30:48;24.50;99.90
69204;DHT22;56317;27.658;85.326;2023-07-31T14:33:16;24.40;99.90
69204;DHT22;56317;27.658;85.326;2023-07-31T14:35:43;24.40;99.90
69204;DHT22;56317;27.658;85.326;2023-07-31T14:38:11;24.40;99.90
69204;DHT22;56317;27.658;85.326;2023-07-31T14:40:38;24.30;99.90
69204;DHT22;56317;27.658;85.326;2023-07-31T14:43:05;24.30;99.90
69204;DHT22;56317;27.658;85.326;2023-07-31T14:45:32;24.20;99.90
69204;DHT22;56317;27.658;85.326;2023-07-31T14:47:59;24.20;99.90
69204;DHT22;56317;27.658;85.326;2023-07-31T14:50:27;24.10;99.90
69204;DHT22;56317;27.658;85.326;2023-07-31T14:52:54;24.10;99.90
69204;DHT22;56317;27.658;85.326;2023-07-31T14:55:21;24.10;99.90
69204;DHT22;56317;27.658;85.326;2023-07-31T14:57:48;24.10;99.90
69204;DHT22;56317;27.658;85.326;2023-07-31T15:00:16;24.10;99.90
69204;DHT22;56317;27.658;85.326;2023-07-31T15:02:45;24.10;99.90
69204;DHT22;56317;27.658;85.326;2023-07-31T15:05:12;24.10;99.90
69204;DHT22;56317;27.658;85.326;2023-07-31T15:07:40;24.10;99.90
69204;DHT22;56317;27.658;85.326;2023-07-31T15:10:07;24.00;99.90
69204;DHT22;56317;27.658;85.326;2023-07-31T15:12:35;24.00;99.90
69204;DHT22;56317;27.658;85.326;2023-07-31T15:15:04;23.90;99.90
69204;DHT22;56317;27.658;85.326;2023-07-31T15:17:32;23.90;99.90
69204;DHT22;56317;27.658;85.326;2023-07-31T15:19:59;23.80;99.90
69204;DHT22;56317;27.658;85.326;2023-07-31T15:22:29;23.70;99.90
69204;DHT22;56317;27.658;85.326;2023-07-31T15:24:57;23.70;99.90
69204;DHT22;56317;27.658;85.326;2023-07-31T15:27:24;23.70;99.90
69204;DHT22;56317;27.658;85.326;2023-07-31T15:29:51;23.80;99.90